Time;durP1;ratioP1;P1;durP2;ratioP2;P2;SDS_P1;SDS_P2;PMS_P1;PMS_P2;Temp;Humidity;BMP_temperature;BMP_pressure;BME280_temperature;BME280_humidity;BME280_pressure;Samples;Min_cycle;Max_cycle;Signal;HPM_P1;HPM_P2
2022/04/14 00:01:29;;;;;;;;;;;10.80;76.50;;;;;;5149815;27;19950;-72
2022/04/14 00:03:55;;;;;;;;;;;10.80;76.50;;;;;;5149818;27;19915;-73
2022/04/14 00:06:21;;;;;;;;;;;10.80;76.50;;;;;;5131280;27;19915;-73
2022/04/14 00:08:47;;;;;;;;;;;10.80;76.50;;;;;;5149783;27;19969;-73
2022/04/14 00:11:13;;;;;;;;;;;10.70;76.50;;;;;;5131155;27;20288;-73
2022/04/14 00:13:38;;;;;;;;;;;10.70;76.50;;;;;;5149656;27;19914;-73
2022/04/14 00:16:04;;;;;;;;;;;10.80;76.60;;;;;;5149672;27;20277;-73
2022/04/14 00:18:30;;;;;;;;;;;10.80;76.50;;;;;;5149615;27;19922;-73
2022/04/14 00:20:56;;;;;;;;;;;10.80;76.40;;;;;;5131158;27;19911;-73
2022/04/14 00:23:21;;;;;;;;;;;10.80;76.50;;;;;;5130959;27;20297;-73
2022/04/14 00:25:47;;;;;;;;;;;10.80;76.40;;;;;;5149561;27;19907;-73
2022/04/14 00:28:12;;;;;;;;;;;10.80;76.30;;;;;;5131025;27;19918;-72
2022/04/14 00:30:38;;;;;;;;;;;10.80;76.20;;;;;;5149546;27;19912;-73
2022/04/14 00:33:04;;;;;;;;;;;10.70;76.10;;;;;;5149985;27;19907;-73
2022/04/14 00:35:29;;;;;;;;;;;10.70;76.10;;;;;;5153398;27;19927;-73
2022/04/14 00:37:55;;;;;;;;;;;10.60;76.10;;;;;;5153671;27;19953;-73
2022/04/14 00:40:20;;;;;;;;;;;10.50;76.00;;;;;;5153519;27;19926;-73
2022/04/14 00:42:46;;;;;;;;;;;10.50;76.00;;;;;;5134941;27;19911;-73
2022/04/14 00:45:12;;;;;;;;;;;10.40;76.00;;;;;;5153289;27;19939;-73
2022/04/14 00:47:38;;;;;;;;;;;10.40;75.90;;;;;;5153489;27;20018;-73
2022/04/14 00:50:04;;;;;;;;;;;10.30;75.90;;;;;;5153508;27;19960;-73
2022/04/14 00:52:30;;;;;;;;;;;10.20;75.90;;;;;;5153944;27;19912;-73
2022/04/14 00:54:55;;;;;;;;;;;10.20;75.90;;;;;;5134737;27;20310;-72
2022/04/14 00:57:21;;;;;;;;;;;10.10;75.90;;;;;;5153298;27;19918;-73
2022/04/14 00:59:46;;;;;;;;;;;10.10;75.90;;;;;;5134701;27;19959;-72
2022/04/14 01:02:12;;;;;;;;;;;10.10;76.00;;;;;;5153060;27;19946;-72
2022/04/14 01:04:38;;;;;;;;;;;10.00;75.90;;;;;;5153089;27;19911;-73
2022/04/14 01:07:07;;;;;;;;;;;10.00;75.90;;;;;;5153097;27;19918;-73
2022/04/14 01:09:33;;;;;;;;;;;9.90;75.90;;;;;;5153024;27;19933;-73
2022/04/14 01:11:59;;;;;;;;;;;9.70;75.90;;;;;;5152956;27;19907;-73
2022/04/14 01:14:29;;;;;;;;;;;9.70;76.10;;;;;;5152921;27;19907;-72
2022/04/14 01:16:55;;;;;;;;;;;9.70;76.20;;;;;;5152730;27;19926;-73
2022/04/14 01:19:21;;;;;;;;;;;9.80;76.20;;;;;;5152864;27;19918;-73
2022/04/14 01:21:52;;;;;;;;;;;9.80;76.20;;;;;;5152947;27;19907;-73
2022/04/14 01:24:18;;;;;;;;;;;9.80;76.00;;;;;;5152696;27;19948;-73
2022/04/14 01:26:44;;;;;;;;;;;9.90;76.00;;;;;;5152768;27;20020;-73
2022/04/14 01:29:21;;;;;;;;;;;9.90;76.00;;;;;;5152798;27;20376;-73
2022/04/14 01:31:46;;;;;;;;;;;10.00;76.00;;;;;;5152736;27;19919;-73
2022/04/14 01:34:12;;;;;;;;;;;10.00;76.00;;;;;;5152604;27;19907;-73
2022/04/14 01:36:37;;;;;;;;;;;10.00;76.00;;;;;;5152391;27;19934;-72
2022/04/14 01:39:03;;;;;;;;;;;10.10;76.00;;;;;;5152605;27;19911;-73
2022/04/14 01:41:28;;;;;;;;;;;10.10;75.90;;;;;;5133857;27;19960;-73
2022/04/14 01:43:54;;;;;;;;;;;10.10;75.80;;;;;;5152063;27;19918;-73
2022/04/14 01:46:19;;;;;;;;;;;10.00;75.70;;;;;;5152338;27;19918;-73
2022/04/14 01:48:45;;;;;;;;;;;9.90;75.50;;;;;;5152491;27;19915;-73
2022/04/14 01:51:10;;;;;;;;;;;9.80;75.80;;;;;;5152276;27;19921;-73
2022/04/14 01:53:36;;;;;;;;;;;9.80;76.20;;;;;;5152149;27;20395;-73
2022/04/14 01:56:01;;;;;;;;;;;9.80;76.80;;;;;;5152140;27;19919;-73
2022/04/14 01:58:27;;;;;;;;;;;9.90;77.30;;;;;;5152177;27;19912;-73
2022/04/14 02:00:53;;;;;;;;;;;10.00;77.70;;;;;;5133914;27;20009;-73
2022/04/14 02:03:19;;;;;;;;;;;10.00;78.20;;;;;;5152042;27;19974;-73
2022/04/14 02:05:44;;;;;;;;;;;10.10;78.70;;;;;;5152048;27;19915;-73
2022/04/14 02:08:10;;;;;;;;;;;10.10;79.00;;;;;;5151947;27;20285;-73
2022/04/14 02:10:35;;;;;;;;;;;10.10;79.40;;;;;;5151975;27;20349;-73
2022/04/14 02:13:01;;;;;;;;;;;10.10;79.40;;;;;;5151820;27;19915;-73
2022/04/14 02:15:26;;;;;;;;;;;10.10;79.40;;;;;;5152144;27;19964;-73
2022/04/14 02:17:52;;;;;;;;;;;10.10;80.00;;;;;;5151842;27;19911;-73
2022/04/14 02:20:18;;;;;;;;;;;10.10;80.40;;;;;;5151756;27;19936;-73
2022/04/14 02:22:43;;;;;;;;;;;10.10;80.60;;;;;;5151849;27;20269;-72
2022/04/14 02:25:09;;;;;;;;;;;10.10;80.80;;;;;;5151618;27;19911;-73
2022/04/14 02:27:35;;;;;;;;;;;10.10;81.20;;;;;;5151612;27;19952;-73
2022/04/14 02:30:01;;;;;;;;;;;10.10;81.70;;;;;;5151435;27;19916;-73
2022/04/14 02:32:26;;;;;;;;;;;10.10;82.20;;;;;;5133178;27;20001;-73
2022/04/14 02:34:52;;;;;;;;;;;10.10;82.30;;;;;;5151073;27;19919;-73
2022/04/14 02:37:17;;;;;;;;;;;10.10;82.80;;;;;;5151394;27;19922;-73
2022/04/14 02:39:43;;;;;;;;;;;10.10;83.40;;;;;;5151415;27;20025;-73
2022/04/14 02:42:08;;;;;;;;;;;10.00;83.60;;;;;;5151400;27;19915;-73
2022/04/14 02:44:34;;;;;;;;;;;10.00;83.70;;;;;;5151290;27;19907;-73
2022/04/14 02:46:59;;;;;;;;;;;10.00;83.90;;;;;;5132476;27;20072;-72
2022/04/14 02:49:25;;;;;;;;;;;10.10;84.40;;;;;;5151168;27;19922;-73
2022/04/14 02:51:50;;;;;;;;;;;10.10;84.50;;;;;;5151100;27;19911;-73
2022/04/14 02:54:16;;;;;;;;;;;10.10;84.40;;;;;;5151178;27;19911;-73
2022/04/14 02:56:42;;;;;;;;;;;10.10;84.50;;;;;;5131612;27;19950;-73
2022/04/14 02:59:07;;;;;;;;;;;10.10;84.20;;;;;;5151067;27;19922;-73
2022/04/14 03:01:33;;;;;;;;;;;10.10;84.10;;;;;;5151015;27;19911;-73
2022/04/14 03:03:58;;;;;;;;;;;10.20;84.30;;;;;;5150792;27;19915;-73
2022/04/14 03:06:24;;;;;;;;;;;10.20;84.80;;;;;;5150897;27;19911;-73
2022/04/14 03:08:49;;;;;;;;;;;10.20;85.10;;;;;;5132208;27;19966;-73
2022/04/14 03:11:15;;;;;;;;;;;10.20;85.30;;;;;;5150826;27;19918;-73
2022/04/14 03:13:42;;;;;;;;;;;10.30;85.50;;;;;;5132012;27;20430;-73
2022/04/14 03:16:08;;;;;;;;;;;10.30;85.60;;;;;;5106490;28;19952;-73
2022/04/14 03:18:33;;;;;;;;;;;10.30;85.90;;;;;;5106835;28;19962;-73
2022/04/14 03:20:59;;;;;;;;;;;10.30;86.10;;;;;;5106737;28;20439;-73
2022/04/14 03:23:25;;;;;;;;;;;10.40;85.90;;;;;;5106723;28;19994;-73
2022/04/14 03:25:50;;;;;;;;;;;10.40;86.20;;;;;;5106822;28;19963;-73
2022/04/14 03:28:16;;;;;;;;;;;10.40;86.10;;;;;;5106796;28;19912;-73
2022/04/14 03:30:41;;;;;;;;;;;10.40;86.10;;;;;;5106552;28;19912;-73
2022/04/14 03:33:07;;;;;;;;;;;10.40;86.00;;;;;;5106644;28;19922;-73
2022/04/14 03:35:33;;;;;;;;;;;10.50;86.10;;;;;;5106087;28;20440;-73
2022/04/14 03:37:58;;;;;;;;;;;10.50;86.10;;;;;;5106605;28;19920;-73
2022/04/14 03:40:24;;;;;;;;;;;10.50;86.20;;;;;;5106541;28;20431;-73
2022/04/14 03:42:49;;;;;;;;;;;10.50;86.40;;;;;;5106417;28;19922;-72
2022/04/14 03:45:15;;;;;;;;;;;10.50;86.60;;;;;;5106413;28;19961;-73
2022/04/14 03:47:40;;;;;;;;;;;10.50;86.80;;;;;;5138242;27;19947;-73
2022/04/14 03:50:06;;;;;;;;;;;10.50;87.20;;;;;;5150087;27;19927;-73
2022/04/14 03:52:32;;;;;;;;;;;10.50;87.60;;;;;;5150003;27;19912;-73
2022/04/14 03:54:57;;;;;;;;;;;10.50;87.80;;;;;;5149971;27;20340;-73
2022/04/14 03:57:24;;;;;;;;;;;10.50;88.20;;;;;;5149830;27;20007;-73
2022/04/14 03:59:49;;;;;;;;;;;10.50;88.30;;;;;;5131195;27;19960;-73
2022/04/14 04:02:15;;;;;;;;;;;10.50;88.40;;;;;;5149695;27;19962;-73
2022/04/14 04:04:41;;;;;;;;;;;10.50;88.60;;;;;;5149474;27;19923;-73
2022/04/14 04:07:07;;;;;;;;;;;10.50;88.50;;;;;;5149891;27;19917;-73
2022/04/14 04:09:33;;;;;;;;;;;10.50;88.70;;;;;;5149901;27;19915;-73
2022/04/14 04:11:59;;;;;;;;;;;10.40;89.00;;;;;;5149871;27;19918;-73
2022/04/14 04:14:25;;;;;;;;;;;10.50;89.00;;;;;;5149815;27;19915;-73
2022/04/14 04:16:51;;;;;;;;;;;10.50;89.10;;;;;;5149744;27;19921;-73
2022/04/14 04:19:16;;;;;;;;;;;10.40;89.20;;;;;;5149634;27;19934;-73
2022/04/14 04:21:42;;;;;;;;;;;10.50;89.40;;;;;;5149644;27;19914;-73
2022/04/14 04:24:07;;;;;;;;;;;10.50;89.40;;;;;;5149646;27;20006;-73
2022/04/14 04:26:33;;;;;;;;;;;10.50;89.40;;;;;;5149569;27;19915;-72
2022/04/14 04:28:59;;;;;;;;;;;10.50;89.60;;;;;;5149717;27;20280;-73
2022/04/14 04:31:24;;;;;;;;;;;10.50;89.40;;;;;;5149599;27;19915;-73
2022/04/14 04:33:51;;;;;;;;;;;10.50;89.70;;;;;;5149477;27;20411;-73
2022/04/14 04:36:17;;;;;;;;;;;10.50;89.80;;;;;;5149314;27;19923;-73
2022/04/14 04:38:42;;;;;;;;;;;10.40;89.50;;;;;;5130888;27;19907;-73
2022/04/14 04:41:08;;;;;;;;;;;10.40;89.40;;;;;;5149376;27;19922;-73
2022/04/14 04:43:34;;;;;;;;;;;10.50;89.60;;;;;;5149386;27;20002;-73
2022/04/14 04:45:59;;;;;;;;;;;10.50;89.60;;;;;;5149277;27;20305;-73
2022/04/14 04:48:25;;;;;;;;;;;10.50;89.40;;;;;;5149098;27;19922;-73
2022/04/14 04:50:51;;;;;;;;;;;10.50;89.40;;;;;;5130831;27;19915;-73
2022/04/14 04:53:16;;;;;;;;;;;10.50;89.30;;;;;;5149292;27;19917;-73
2022/04/14 04:55:42;;;;;;;;;;;10.50;89.20;;;;;;5149063;27;19911;-73
2022/04/14 04:58:07;;;;;;;;;;;10.50;89.00;;;;;;5149677;27;19911;-72
2022/04/14 05:00:33;;;;;;;;;;;10.50;88.80;;;;;;5149179;27;19917;-73
2022/04/14 05:02:58;;;;;;;;;;;10.50;88.70;;;;;;5149151;27;19950;-73
2022/04/14 05:05:24;;;;;;;;;;;10.50;88.60;;;;;;5149175;27;19949;-73
2022/04/14 05:07:50;;;;;;;;;;;10.50;88.50;;;;;;5149040;27;19911;-73
2022/04/14 05:10:17;;;;;;;;;;;10.50;88.50;;;;;;5149221;27;20451;-73
2022/04/14 05:12:42;;;;;;;;;;;10.50;88.40;;;;;;5149019;27;19911;-73
2022/04/14 05:15:08;;;;;;;;;;;10.50;88.30;;;;;;5130391;27;20018;-73
2022/04/14 05:17:34;;;;;;;;;;;10.50;88.30;;;;;;5130407;27;19932;-73
2022/04/14 05:19:59;;;;;;;;;;;10.50;88.30;;;;;;5150812;27;19930;-73
2022/04/14 05:22:25;;;;;;;;;;;10.50;88.20;;;;;;5152906;27;19915;-73
2022/04/14 05:24:50;;;;;;;;;;;10.60;88.20;;;;;;5152733;27;20014;-73
2022/04/14 05:27:16;;;;;;;;;;;10.60;88.20;;;;;;5152775;27;19911;-73
2022/04/14 05:29:41;;;;;;;;;;;10.60;88.20;;;;;;5152627;27;19915;-73
2022/04/14 05:32:07;;;;;;;;;;;10.60;88.20;;;;;;5152411;27;19955;-73
2022/04/14 05:34:33;;;;;;;;;;;10.70;88.30;;;;;;5133800;27;20050;-73
2022/04/14 05:36:58;;;;;;;;;;;10.70;88.40;;;;;;5152534;27;19967;-73
2022/04/14 05:39:24;;;;;;;;;;;10.70;88.60;;;;;;5152598;27;19907;-73
2022/04/14 05:41:52;;;;;;;;;;;10.80;88.80;;;;;;5116729;27;20261;-73
2022/04/14 05:44:19;;;;;;;;;;;10.80;88.90;;;;;;5133837;27;19922;-73
2022/04/14 05:46:44;;;;;;;;;;;10.80;88.90;;;;;;5133609;27;19911;-73
2022/04/14 05:49:10;;;;;;;;;;;10.80;88.70;;;;;;5152234;27;19915;-73
2022/04/14 05:51:35;;;;;;;;;;;10.90;88.60;;;;;;5152210;27;19911;-73
2022/04/14 05:54:01;;;;;;;;;;;10.90;88.50;;;;;;5151917;27;20218;-73
2022/04/14 05:56:26;;;;;;;;;;;10.90;88.50;;;;;;5152131;27;19915;-73
2022/04/14 05:58:55;;;;;;;;;;;10.90;88.70;;;;;;5151860;27;19963;-71
2022/04/14 06:01:20;;;;;;;;;;;10.90;88.70;;;;;;5151984;27;20302;-73
2022/04/14 06:03:46;;;;;;;;;;;11.00;88.70;;;;;;5151837;27;20020;-73
2022/04/14 06:06:12;;;;;;;;;;;11.00;88.60;;;;;;5151833;27;19911;-73
2022/04/14 06:08:37;;;;;;;;;;;11.00;88.60;;;;;;5133192;27;19911;-73
2022/04/14 06:11:05;;;;;;;;;;;11.10;88.50;;;;;;5133171;27;20364;-73
2022/04/14 06:13:31;;;;;;;;;;;11.20;88.50;;;;;;5151822;27;20551;-73
2022/04/14 06:15:56;;;;;;;;;;;11.30;88.40;;;;;;5151432;27;19915;-74
2022/04/14 06:18:22;;;;;;;;;;;11.30;88.20;;;;;;5151584;27;19967;-73
2022/04/14 06:20:49;;;;;;;;;;;11.40;88.30;;;;;;5132680;27;19911;-73
2022/04/14 06:23:18;;;;;;;;;;;11.40;88.30;;;;;;5151157;27;19907;-73
2022/04/14 06:25:50;;;;;;;;;;;11.50;88.20;;;;;;5132741;27;19926;-73
2022/04/14 06:28:17;;;;;;;;;;;11.60;88.10;;;;;;5151149;27;19919;-72
2022/04/14 06:30:43;;;;;;;;;;;11.70;88.10;;;;;;5150016;27;19956;-74
2022/04/14 06:33:08;;;;;;;;;;;11.80;88.00;;;;;;5150832;27;19915;-74
2022/04/14 06:35:34;;;;;;;;;;;11.90;88.00;;;;;;5132400;27;19958;-74
2022/04/14 06:37:59;;;;;;;;;;;11.90;87.90;;;;;;5150735;27;20183;-74
2022/04/14 06:40:25;;;;;;;;;;;12.00;87.80;;;;;;5132670;27;19915;-73
2022/04/14 06:42:51;;;;;;;;;;;12.00;87.80;;;;;;5150907;27;19907;-73
2022/04/14 06:45:17;;;;;;;;;;;12.10;87.90;;;;;;5150898;27;19938;-73
2022/04/14 06:47:42;;;;;;;;;;;12.20;87.80;;;;;;5150638;27;19951;-73
2022/04/14 06:50:08;;;;;;;;;;;12.30;87.70;;;;;;5131790;27;19911;-73
2022/04/14 06:52:34;;;;;;;;;;;12.30;87.70;;;;;;5150701;27;19907;-73
2022/04/14 06:54:59;;;;;;;;;;;12.40;87.70;;;;;;5131656;27;19915;-73
2022/04/14 06:57:25;;;;;;;;;;;12.40;87.50;;;;;;5150364;27;19954;-73
2022/04/14 06:59:51;;;;;;;;;;;12.40;87.60;;;;;;5150161;27;19915;-73
2022/04/14 07:02:16;;;;;;;;;;;12.40;87.50;;;;;;5150908;27;20633;-73
2022/04/14 07:04:42;;;;;;;;;;;12.50;87.50;;;;;;5150553;27;20249;-73
2022/04/14 07:07:07;;;;;;;;;;;12.50;87.40;;;;;;5150572;27;19930;-73
2022/04/14 07:09:34;;;;;;;;;;;12.60;87.40;;;;;;5150515;27;20007;-70
2022/04/14 07:12:00;;;;;;;;;;;12.60;87.40;;;;;;5150322;27;19908;-73
2022/04/14 07:14:29;;;;;;;;;;;12.60;87.40;;;;;;5150386;27;20335;-73
2022/04/14 07:16:56;;;;;;;;;;;12.60;87.50;;;;;;5150379;27;19911;-73
2022/04/14 07:19:21;;;;;;;;;;;12.60;87.40;;;;;;5150369;27;19911;-73
2022/04/14 07:21:47;;;;;;;;;;;12.70;87.50;;;;;;5150345;27;19907;-73
2022/04/14 07:24:12;;;;;;;;;;;12.70;87.40;;;;;;5150336;27;20011;-73
2022/04/14 07:26:38;;;;;;;;;;;12.80;87.50;;;;;;5150201;27;19911;-73
2022/04/14 07:29:04;;;;;;;;;;;12.80;87.40;;;;;;5149944;27;20021;-73
2022/04/14 07:31:33;;;;;;;;;;;12.80;87.30;;;;;;5150314;27;20365;-72
2022/04/14 07:33:58;;;;;;;;;;;12.80;87.40;;;;;;5150420;27;19911;-73
2022/04/14 07:36:24;;;;;;;;;;;12.80;87.40;;;;;;5149600;27;19919;-73
2022/04/14 07:38:50;;;;;;;;;;;12.90;87.40;;;;;;5150155;27;19963;-63
2022/04/14 07:41:15;;;;;;;;;;;12.90;87.50;;;;;;5149847;27;19959;-73
2022/04/14 07:43:41;;;;;;;;;;;13.00;87.50;;;;;;5149497;27;19911;-73
2022/04/14 07:46:07;;;;;;;;;;;13.00;87.40;;;;;;5149768;27;19938;-73
2022/04/14 07:48:33;;;;;;;;;;;13.00;87.30;;;;;;5131147;27;20380;-73
2022/04/14 07:51:01;;;;;;;;;;;13.10;87.50;;;;;;5149826;27;19917;-73
2022/04/14 07:53:27;;;;;;;;;;;13.10;87.50;;;;;;5149450;27;19911;-73
2022/04/14 07:55:53;;;;;;;;;;;13.30;87.40;;;;;;5149521;27;19924;-73
2022/04/14 07:58:18;;;;;;;;;;;13.20;87.30;;;;;;5130780;27;19923;-73
2022/04/14 08:00:46;;;;;;;;;;;13.30;87.40;;;;;;5149331;27;19964;-73
2022/04/14 08:03:11;;;;;;;;;;;13.40;87.30;;;;;;5131249;27;19918;-73
2022/04/14 08:05:42;;;;;;;;;;;13.50;87.20;;;;;;5149583;27;19911;-73
2022/04/14 08:08:12;;;;;;;;;;;13.50;87.10;;;;;;5149507;27;19917;-73
2022/04/14 08:10:38;;;;;;;;;;;13.50;87.20;;;;;;5149582;27;19911;-75
2022/04/14 08:13:04;;;;;;;;;;;13.60;87.20;;;;;;5149533;27;20418;-74
2022/04/14 08:15:30;;;;;;;;;;;13.60;87.10;;;;;;5149263;27;19923;-73
2022/04/14 08:17:56;;;;;;;;;;;13.60;87.00;;;;;;5130676;27;19942;-73
2022/04/14 08:20:21;;;;;;;;;;;13.60;86.90;;;;;;5149173;27;20409;-73
2022/04/14 08:22:57;;;;;;;;;;;13.70;87.00;;;;;;5149070;27;19915;-73
2022/04/14 08:25:30;;;;;;;;;;;13.70;87.00;;;;;;5148823;27;19907;-73
2022/04/14 08:27:56;;;;;;;;;;;13.70;86.90;;;;;;5148941;27;20420;-73
2022/04/14 08:30:23;;;;;;;;;;;13.80;87.00;;;;;;5149022;27;19911;-73
2022/04/14 08:32:50;;;;;;;;;;;13.80;87.00;;;;;;5148421;27;20281;-73
2022/04/14 08:35:16;;;;;;;;;;;13.90;86.90;;;;;;5148542;27;19927;-73
2022/04/14 08:37:43;;;;;;;;;;;14.10;86.90;;;;;;5148923;27;19915;-73
2022/04/14 08:40:09;;;;;;;;;;;14.10;86.80;;;;;;5148850;27;20376;-73
2022/04/14 08:42:39;;;;;;;;;;;14.20;86.70;;;;;;5148613;27;19907;-73
2022/04/14 08:45:06;;;;;;;;;;;14.20;86.70;;;;;;5148809;27;20448;-73
2022/04/14 08:47:34;;;;;;;;;;;14.30;86.80;;;;;;5148840;27;19913;-73
2022/04/14 08:50:00;;;;;;;;;;;14.30;86.70;;;;;;5148794;27;20398;-73
2022/04/14 08:52:26;;;;;;;;;;;14.40;86.50;;;;;;5148305;27;19907;-73
2022/04/14 08:54:53;;;;;;;;;;;14.50;86.60;;;;;;5149932;27;20002;-73
2022/04/14 08:57:19;;;;;;;;;;;14.60;86.60;;;;;;5133365;27;20374;-72
2022/04/14 08:59:45;;;;;;;;;;;14.80;86.70;;;;;;5152405;27;20006;-73
2022/04/14 09:02:14;;;;;;;;;;;15.00;86.60;;;;;;5152529;27;19970;-73
2022/04/14 09:04:41;;;;;;;;;;;15.10;86.60;;;;;;5152256;27;19972;-72
2022/04/14 09:07:06;;;;;;;;;;;15.30;86.40;;;;;;5151905;27;19915;-73
2022/04/14 09:09:32;;;;;;;;;;;15.50;86.30;;;;;;5152412;27;19907;-73
2022/04/14 09:11:57;;;;;;;;;;;15.70;85.80;;;;;;5151500;27;19958;-73
2022/04/14 09:14:23;;;;;;;;;;;15.70;85.60;;;;;;5151380;27;19956;-73
2022/04/14 09:16:49;;;;;;;;;;;15.80;85.20;;;;;;5151960;27;19983;-73
2022/04/14 09:19:15;;;;;;;;;;;15.80;84.80;;;;;;5133546;27;19923;-73
2022/04/14 09:21:57;;;;;;;;;;;15.90;84.80;;;;;;5151913;27;20360;-73
2022/04/14 09:24:41;;;;;;;;;;;15.90;84.50;;;;;;5151912;27;19916;-73
2022/04/14 09:27:07;;;;;;;;;;;16.00;84.50;;;;;;5151310;27;19918;-73
2022/04/14 09:29:32;;;;;;;;;;;16.10;84.70;;;;;;5151075;27;19916;-73
2022/04/14 09:31:58;;;;;;;;;;;16.20;84.40;;;;;;5150839;27;20007;-73
2022/04/14 09:34:45;;;;;;;;;;;16.40;84.60;;;;;;5132727;27;19907;-73
2022/04/14 09:37:11;;;;;;;;;;;16.50;84.70;;;;;;5149218;27;20245;-73
2022/04/14 09:39:49;;;;;;;;;;;16.70;84.60;;;;;;5149113;27;19907;-73
2022/04/14 09:42:15;;;;;;;;;;;16.70;84.00;;;;;;5149313;27;20428;-72
2022/04/14 09:44:40;;;;;;;;;;;16.80;83.60;;;;;;5147993;27;20018;-72
2022/04/14 09:47:06;;;;;;;;;;;17.00;84.10;;;;;;5147379;27;19926;-73
2022/04/14 09:49:31;;;;;;;;;;;17.10;84.00;;;;;;5147661;27;20256;-72
2022/04/14 09:52:06;;;;;;;;;;;17.40;84.00;;;;;;5147167;27;19912;-72
2022/04/14 09:54:31;;;;;;;;;;;17.60;83.60;;;;;;5146934;27;19907;-74
2022/04/14 09:56:57;;;;;;;;;;;17.70;83.60;;;;;;5128821;27;19915;-73
2022/04/14 09:59:30;;;;;;;;;;;17.70;83.00;;;;;;5129567;27;19979;-73
2022/04/14 10:02:14;;;;;;;;;;;17.60;82.60;;;;;;5149819;27;19933;-73
2022/04/14 10:04:42;;;;;;;;;;;17.60;82.60;;;;;;5149652;27;19964;-73
2022/04/14 10:07:09;;;;;;;;;;;17.70;82.20;;;;;;5150491;27;19911;-71
2022/04/14 10:09:35;;;;;;;;;;;18.00;81.90;;;;;;5150123;27;20408;-72
2022/04/14 10:12:02;;;;;;;;;;;18.20;81.40;;;;;;5150775;27;19955;-74
2022/04/14 10:14:27;;;;;;;;;;;18.40;81.10;;;;;;5150421;27;19914;-73
2022/04/14 10:16:53;;;;;;;;;;;18.70;81.30;;;;;;5131861;27;19915;-74
2022/04/14 10:19:19;;;;;;;;;;;19.00;80.50;;;;;;5132000;27;19923;-73
2022/04/14 10:21:45;;;;;;;;;;;19.10;80.00;;;;;;5150427;27;19911;-73
2022/04/14 10:24:14;;;;;;;;;;;19.10;79.30;;;;;;5150196;27;19911;-73
2022/04/14 10:26:40;;;;;;;;;;;19.00;78.00;;;;;;5150555;27;19907;-71
2022/04/14 10:29:07;;;;;;;;;;;18.90;77.00;;;;;;5150462;27;19946;-74
2022/04/14 10:31:35;;;;;;;;;;;18.60;76.40;;;;;;5150317;27;19911;-74
2022/04/14 10:34:04;;;;;;;;;;;18.50;77.00;;;;;;5150395;27;20008;-74
2022/04/14 10:36:31;;;;;;;;;;;18.80;78.20;;;;;;5149946;27;19927;-72
2022/04/14 10:38:57;;;;;;;;;;;19.10;78.20;;;;;;5150690;27;19907;-73
2022/04/14 10:41:26;;;;;;;;;;;19.10;77.40;;;;;;5149926;27;19913;-73
2022/04/14 10:43:51;;;;;;;;;;;19.00;77.00;;;;;;5150234;27;20397;-73
2022/04/14 10:46:17;;;;;;;;;;;18.90;77.10;;;;;;5150203;27;19915;-73
2022/04/14 10:48:44;;;;;;;;;;;18.90;77.10;;;;;;5150292;27;19960;-73
2022/04/14 10:51:15;;;;;;;;;;;18.80;76.90;;;;;;5150377;27;20023;-72
2022/04/14 10:53:55;;;;;;;;;;;18.70;77.30;;;;;;5150086;27;19942;-73
2022/04/14 10:56:42;;;;;;;;;;;18.60;77.40;;;;;;5150139;27;20416;-73
2022/04/14 10:59:14;;;;;;;;;;;18.40;77.30;;;;;;5150143;27;20321;-74
2022/04/14 11:01:50;;;;;;;;;;;18.20;77.40;;;;;;5132127;27;20413;-64
2022/04/14 11:04:23;;;;;;;;;;;18.00;77.60;;;;;;5149258;27;19946;-73
2022/04/14 11:06:51;;;;;;;;;;;18.00;78.20;;;;;;5149437;27;19933;-73
2022/04/14 11:09:34;;;;;;;;;;;18.10;78.30;;;;;;5149694;27;19907;-73
2022/04/14 11:12:01;;;;;;;;;;;18.20;78.20;;;;;;5149975;27;20380;-73
2022/04/14 11:14:26;;;;;;;;;;;18.20;78.00;;;;;;5149628;27;19907;-72
2022/04/14 11:16:52;;;;;;;;;;;18.10;77.90;;;;;;5148486;27;19922;-73
2022/04/14 11:19:24;;;;;;;;;;;18.10;78.10;;;;;;5148934;27;19911;-73
2022/04/14 11:22:00;;;;;;;;;;;18.10;78.30;;;;;;5130734;27;19911;-72
2022/04/14 11:24:41;;;;;;;;;;;18.20;78.50;;;;;;5148932;27;19911;-72
2022/04/14 11:27:10;;;;;;;;;;;18.30;77.80;;;;;;5148718;27;20309;-72
2022/04/14 11:29:35;;;;;;;;;;;18.30;77.10;;;;;;5149058;27;20273;-73
2022/04/14 11:32:01;;;;;;;;;;;18.40;76.90;;;;;;5149195;27;19911;-73
2022/04/14 11:34:33;;;;;;;;;;;18.40;76.90;;;;;;5148596;27;19907;-72
2022/04/14 11:37:01;;;;;;;;;;;18.40;76.00;;;;;;5129482;27;20432;-73
2022/04/14 11:39:27;;;;;;;;;;;18.30;76.10;;;;;;5148394;27;19944;-73
2022/04/14 11:41:53;;;;;;;;;;;18.30;76.50;;;;;;5148646;27;19971;-72
2022/04/14 11:44:32;;;;;;;;;;;18.40;76.80;;;;;;5149539;27;20007;-72
2022/04/14 11:46:59;;;;;;;;;;;18.40;76.60;;;;;;5148828;27;19911;-72
2022/04/14 11:49:28;;;;;;;;;;;18.30;76.20;;;;;;5148264;27;20490;-73
2022/04/14 11:51:55;;;;;;;;;;;18.20;76.20;;;;;;5129470;27;19923;-73
2022/04/14 11:54:21;;;;;;;;;;;18.20;76.40;;;;;;5148352;27;20006;-73
2022/04/14 11:56:52;;;;;;;;;;;18.20;75.90;;;;;;5129610;27;19912;-72
2022/04/14 11:59:38;;;;;;;;;;;18.20;75.60;;;;;;5148653;27;19918;-72
2022/04/14 12:02:11;;;;;;;;;;;18.10;75.70;;;;;;5147659;27;20385;-72
2022/04/14 12:04:40;;;;;;;;;;;17.90;75.90;;;;;;5148510;27;19954;-72
2022/04/14 12:07:06;;;;;;;;;;;17.90;76.10;;;;;;5148741;27;20001;-73
2022/04/14 12:09:32;;;;;;;;;;;17.80;75.90;;;;;;5149078;27;20384;-72
2022/04/14 12:12:07;;;;;;;;;;;17.70;75.60;;;;;;5148779;27;19911;-74
2022/04/14 12:14:33;;;;;;;;;;;17.70;75.80;;;;;;5129908;27;19907;-74
2022/04/14 12:16:58;;;;;;;;;;;17.80;76.00;;;;;;5129322;27;20010;-73
2022/04/14 12:19:38;;;;;;;;;;;17.80;75.80;;;;;;5148304;27;20254;-72
2022/04/14 12:22:05;;;;;;;;;;;17.80;75.60;;;;;;5129848;27;19907;-72
2022/04/14 12:24:31;;;;;;;;;;;17.80;75.80;;;;;;5148451;27;20269;-72
2022/04/14 12:26:57;;;;;;;;;;;17.80;76.00;;;;;;5148452;27;20365;-73
2022/04/14 12:29:22;;;;;;;;;;;17.90;75.60;;;;;;5149448;27;19919;-73
2022/04/14 12:31:48;;;;;;;;;;;17.90;75.30;;;;;;5152666;27;20061;-73
2022/04/14 12:34:14;;;;;;;;;;;17.90;74.90;;;;;;5152621;27;19911;-73
2022/04/14 12:36:40;;;;;;;;;;;17.90;75.00;;;;;;5152249;27;19950;-72
2022/04/14 12:39:25;;;;;;;;;;;17.90;75.00;;;;;;5152431;27;19918;-73
2022/04/14 12:41:53;;;;;;;;;;;17.90;75.00;;;;;;5152241;27;19907;-73
2022/04/14 12:44:20;;;;;;;;;;;17.80;75.00;;;;;;5152391;27;19907;-72
2022/04/14 12:46:49;;;;;;;;;;;17.90;75.20;;;;;;5152622;27;19911;-73
2022/04/14 12:49:16;;;;;;;;;;;17.90;75.30;;;;;;5133507;27;19907;-72
2022/04/14 12:51:42;;;;;;;;;;;17.90;75.50;;;;;;5134100;27;19915;-73
2022/04/14 12:54:14;;;;;;;;;;;18.00;75.50;;;;;;5152525;27;19911;-73
2022/04/14 12:56:40;;;;;;;;;;;18.00;75.50;;;;;;5152157;27;19958;-72
2022/04/14 12:59:09;;;;;;;;;;;18.10;75.50;;;;;;5152288;27;19935;-73
2022/04/14 13:01:52;;;;;;;;;;;18.10;75.50;;;;;;5152425;27;19907;-73
2022/04/14 13:04:19;;;;;;;;;;;18.10;74.90;;;;;;5152177;27;19966;-73
2022/04/14 13:06:58;;;;;;;;;;;18.10;75.30;;;;;;5133000;27;19955;-72
2022/04/14 13:09:24;;;;;;;;;;;18.20;74.90;;;;;;5152103;27;19907;-73
2022/04/14 13:11:49;;;;;;;;;;;18.10;74.80;;;;;;5152290;27;20368;-73
2022/04/14 13:14:15;;;;;;;;;;;18.00;74.40;;;;;;5152047;27;19954;-73
2022/04/14 13:16:40;;;;;;;;;;;18.00;74.60;;;;;;5152160;27;19911;-73
2022/04/14 13:19:06;;;;;;;;;;;17.90;74.60;;;;;;5133336;27;20261;-73
2022/04/14 13:21:32;;;;;;;;;;;17.90;74.90;;;;;;5151860;27;19911;-73
2022/04/14 13:23:58;;;;;;;;;;;17.90;74.90;;;;;;5152005;27;19917;-73
2022/04/14 13:26:23;;;;;;;;;;;17.80;74.70;;;;;;5151944;27;19938;-73
2022/04/14 13:28:49;;;;;;;;;;;17.70;74.60;;;;;;5151985;27;19911;-73
2022/04/14 13:31:14;;;;;;;;;;;17.70;74.90;;;;;;5152024;27;19907;-73
2022/04/14 13:33:40;;;;;;;;;;;17.60;75.10;;;;;;5151449;27;20441;-73
2022/04/14 13:36:05;;;;;;;;;;;17.60;75.10;;;;;;5132039;27;19949;-73
2022/04/14 13:38:31;;;;;;;;;;;17.60;75.00;;;;;;5151567;27;19949;-73
2022/04/14 13:40:56;;;;;;;;;;;17.50;75.00;;;;;;5131984;27;19959;-73
2022/04/14 13:43:22;;;;;;;;;;;17.60;75.40;;;;;;5132318;27;19911;-73
2022/04/14 13:45:48;;;;;;;;;;;17.50;75.40;;;;;;5132941;27;19922;-73
2022/04/14 13:48:13;;;;;;;;;;;17.50;75.40;;;;;;5151100;27;19911;-73
2022/04/14 13:50:40;;;;;;;;;;;17.60;75.30;;;;;;5150908;27;19964;-73
2022/04/14 13:53:06;;;;;;;;;;;17.50;75.20;;;;;;5150692;27;19915;-73
2022/04/14 13:55:34;;;;;;;;;;;17.50;75.20;;;;;;5115105;27;19922;-73
2022/04/14 13:57:59;;;;;;;;;;;17.40;75.20;;;;;;5151330;27;19998;-75
2022/04/14 14:00:26;;;;;;;;;;;17.40;75.50;;;;;;5151313;27;19953;-74
2022/04/14 14:02:51;;;;;;;;;;;17.40;75.60;;;;;;5150711;27;20424;-73
2022/04/14 14:05:17;;;;;;;;;;;17.50;75.60;;;;;;5132748;27;20002;-73
2022/04/14 14:07:42;;;;;;;;;;;17.50;75.70;;;;;;5151000;27;19911;-74
2022/04/14 14:10:08;;;;;;;;;;;17.50;75.70;;;;;;5150712;27;19911;-73
2022/04/14 14:12:39;;;;;;;;;;;17.60;75.80;;;;;;5151019;27;19919;-73
2022/04/14 14:15:05;;;;;;;;;;;17.70;75.70;;;;;;5151948;27;19919;-74
2022/04/14 14:17:31;;;;;;;;;;;17.70;75.60;;;;;;5151062;27;19914;-73